sensor_id;sensor_type;location;lat;lon;timestamp;pressure;altitude;pressure_sealevel;temperature;humidity
9839;BME280;4958;48.150;11.506;2023-04-28T06:15:38;95468.66;;;12.50;78.12
9839;BME280;4958;48.150;11.506;2023-04-28T06:18:28;95471.25;;;12.50;78.05
9839;BME280;4958;48.150;11.506;2023-04-28T06:24:03;95465.72;;;12.59;77.81
9839;BME280;4958;48.150;11.506;2023-04-28T06:26:41;95459.16;;;12.57;78.22
9839;BME280;4958;48.150;11.506;2023-04-28T06:29:45;95469.84;;;12.54;78.32
9839;BME280;4958;48.150;11.506;2023-04-28T06:35:18;95463.94;;;12.60;79.46
9839;BME280;4958;48.150;11.506;2023-04-28T06:38:09;95463.13;;;12.59;80.22
9839;BME280;4958;48.150;11.506;2023-04-28T06:40:59;95457.41;;;12.70;80.02
9839;BME280;4958;48.150;11.506;2023-04-28T06:43:26;95450.50;;;12.77;80.51
9839;BME280;4958;48.150;11.506;2023-04-28T06:46:17;95438.22;;;12.86;80.17
9839;BME280;4958;48.150;11.506;2023-04-28T06:48:45;95442.19;;;12.95;80.28
9839;BME280;4958;48.150;11.506;2023-04-28T06:51:33;95441.66;;;13.13;80.39
9839;BME280;4958;48.150;11.506;2023-04-28T06:54:06;95441.31;;;13.23;79.77
9839;BME280;4958;48.150;11.506;2023-04-28T06:56:34;95424.22;;;13.35;80.31
9839;BME280;4958;48.150;11.506;2023-04-28T06:59:18;95430.78;;;13.37;79.96
9839;BME280;4958;48.150;11.506;2023-04-28T07:01:45;95426.81;;;13.48;79.11
9839;BME280;4958;48.150;11.506;2023-04-28T07:04:14;95423.25;;;13.56;78.68
9839;BME280;4958;48.150;11.506;2023-04-28T07:07:10;95430.03;;;13.63;78.89
9839;BME280;4958;48.150;11.506;2023-04-28T07:09:51;95425.84;;;13.62;78.42
9839;BME280;4958;48.150;11.506;2023-04-28T07:12:45;95425.06;;;13.62;78.43
9839;BME280;4958;48.150;11.506;2023-04-28T07:15:17;95429.59;;;13.66;78.26
9839;BME280;4958;48.150;11.506;2023-04-28T07:18:15;95430.63;;;13.59;78.82
9839;BME280;4958;48.150;11.506;2023-04-28T07:21:10;95425.66;;;13.64;79.10
9839;BME280;4958;48.150;11.506;2023-04-28T07:27:39;95425.84;;;13.62;78.79
9839;BME280;4958;48.150;11.506;2023-04-28T07:29:59;95417.06;;;13.57;79.27
9839;BME280;4958;48.150;11.506;2023-04-28T07:32:28;95427.25;;;13.65;79.06
9839;BME280;4958;48.150;11.506;2023-04-28T07:34:56;95431.63;;;13.64;79.20
9839;BME280;4958;48.150;11.506;2023-04-28T07:37:38;95428.81;;;13.59;79.57
9839;BME280;4958;48.150;11.506;2023-04-28T07:40:34;95419.88;;;13.62;80.63
9839;BME280;4958;48.150;11.506;2023-04-28T07:43:27;95427.22;;;13.71;80.14
9839;BME280;4958;48.150;11.506;2023-04-28T07:46:13;95427.81;;;13.73;79.75
9839;BME280;4958;48.150;11.506;2023-04-28T07:49:22;95435.56;;;13.67;79.45
9839;BME280;4958;48.150;11.506;2023-04-28T07:51:57;95443.56;;;13.59;79.51
9839;BME280;4958;48.150;11.506;2023-04-28T07:54:57;95439.97;;;13.60;80.50
9839;BME280;4958;48.150;11.506;2023-04-28T07:58:52;95445.75;;;13.62;81.42
9839;BME280;4958;48.150;11.506;2023-04-28T08:04:45;95444.75;;;13.63;82.39
9839;BME280;4958;48.150;11.506;2023-04-28T08:07:55;95443.94;;;13.62;83.71
9839;BME280;4958;48.150;11.506;2023-04-28T08:24:43;95431.22;;;13.61;86.55
9839;BME280;4958;48.150;11.506;2023-04-28T08:30:42;95424.81;;;13.50;88.99
9839;BME280;4958;48.150;11.506;2023-04-28T08:33:44;95418.66;;;13.51;89.63
9839;BME280;4958;48.150;11.506;2023-04-28T08:36:13;95413.69;;;13.49;89.05
9839;BME280;4958;48.150;11.506;2023-04-28T08:38:58;95414.88;;;13.47;89.07
9839;BME280;4958;48.150;11.506;2023-04-28T08:41:52;95410.91;;;13.44;89.30
9839;BME280;4958;48.150;11.506;2023-04-28T08:44:48;95408.53;;;13.43;89.73
9839;BME280;4958;48.150;11.506;2023-04-28T08:47:57;95399.59;;;13.45;90.78
9839;BME280;4958;48.150;11.506;2023-04-28T08:50:28;95404.13;;;13.50;88.93
9839;BME280;4958;48.150;11.506;2023-04-28T08:53:21;95398.34;;;13.48;87.95
9839;BME280;4958;48.150;11.506;2023-04-28T08:59:19;95399.16;;;13.35;90.61
9839;BME280;4958;48.150;11.506;2023-04-28T09:01:58;95401.94;;;13.47;90.40
9839;BME280;4958;48.150;11.506;2023-04-28T09:04:42;95396.00;;;13.46;88.86
9839;BME280;4958;48.150;11.506;2023-04-28T09:07:31;95403.13;;;13.51;90.10
9839;BME280;4958;48.150;11.506;2023-04-28T09:10:25;95398.75;;;13.52;89.62
9839;BME280;4958;48.150;11.506;2023-04-28T09:13:24;95396.19;;;13.52;89.58
9839;BME280;4958;48.150;11.506;2023-04-28T09:16:07;95395.78;;;13.55;89.13
9839;BME280;4958;48.150;11.506;2023-04-28T09:18:33;95405.53;;;13.59;88.54
9839;BME280;4958;48.150;11.506;2023-04-28T09:21:09;95395.41;;;13.58;89.76
9839;BME280;4958;48.150;11.506;2023-04-28T09:25:09;95389.03;;;13.54;89.81
9839;BME280;4958;48.150;11.506;2023-04-28T09:30:37;95388.00;;;13.48;91.50
9839;BME280;4958;48.150;11.506;2023-04-28T09:43:49;95380.25;;;13.28;96.13
9839;BME280;4958;48.150;11.506;2023-04-28T09:46:56;95372.28;;;13.30;97.83
9839;BME280;4958;48.150;11.506;2023-04-28T09:49:30;95376.66;;;13.29;98.67
9839;BME280;4958;48.150;11.506;2023-04-28T09:52:15;95371.69;;;13.28;99.17
9839;BME280;4958;48.150;11.506;2023-04-28T09:54:53;95371.50;;;13.29;100.00
9839;BME280;4958;48.150;11.506;2023-04-28T09:57:40;95372.50;;;13.35;100.00
9839;BME280;4958;48.150;11.506;2023-04-28T10:00:31;95378.28;;;13.37;100.00
9839;BME280;4958;48.150;11.506;2023-04-28T10:03:08;95370.91;;;13.34;99.95
9839;BME280;4958;48.150;11.506;2023-04-28T10:05:50;95378.66;;;13.34;100.00
9839;BME280;4958;48.150;11.506;2023-04-28T10:08:48;95380.66;;;13.38;100.00
9839;BME280;4958;48.150;11.506;2023-04-28T10:11:22;95383.25;;;13.38;100.00
9839;BME280;4958;48.150;11.506;2023-04-28T10:14:03;95372.13;;;13.25;100.00
9839;BME280;4958;48.150;11.506;2023-04-28T10:16:34;95372.31;;;13.23;100.00
9839;BME280;4958;48.150;11.506;2023-04-28T10:19:04;95373.88;;;13.18;100.00
9839;BME280;4958;48.150;11.506;2023-04-28T10:21:46;95368.53;;;13.26;100.00
9839;BME280;4958;48.150;11.506;2023-04-28T10:27:08;95366.50;;;13.14;100.00
9839;BME280;4958;48.150;11.506;2023-04-28T10:29:35;95363.38;;;13.26;100.00
9839;BME280;4958;48.150;11.506;2023-04-28T10:32:25;95366.53;;;13.21;100.00
9839;BME280;4958;48.150;11.506;2023-04-28T10:38:19;95362.38;;;13.20;100.00
9839;BME280;4958;48.150;11.506;2023-04-28T10:40:47;95354.81;;;13.19;100.00
9839;BME280;4958;48.150;11.506;2023-04-28T10:43:35;95367.13;;;13.30;100.00
9839;BME280;4958;48.150;11.506;2023-04-28T10:46:07;95366.31;;;13.29;100.00
9839;BME280;4958;48.150;11.506;2023-04-28T10:56:01;95354.75;;;13.05;100.00
9839;BME280;4958;48.150;11.506;2023-04-28T10:59:02;95351.19;;;13.13;100.00
9839;BME280;4958;48.150;11.506;2023-04-28T11:02:42;95372.50;;;13.28;100.00
9839;BME280;4958;48.150;11.506;2023-04-28T11:05:15;95360.97;;;13.31;100.00
9839;BME280;4958;48.150;11.506;2023-04-28T11:08:34;95355.97;;;13.29;100.00
9839;BME280;4958;48.150;11.506;2023-04-28T11:11:22;95350.63;;;13.18;100.00
9839;BME280;4958;48.150;11.506;2023-04-28T17:57:39;95266.28;;;14.83;100.00
9839;BME280;4958;48.150;11.506;2023-04-28T18:00:31;95269.06;;;14.82;100.00
9839;BME280;4958;48.150;11.506;2023-04-28T18:03:14;95278.22;;;14.84;100.00
9839;BME280;4958;48.150;11.506;2023-04-28T18:05:52;95280.25;;;14.82;100.00
9839;BME280;4958;48.150;11.506;2023-04-28T18:08:53;95287.50;;;14.74;100.00
9839;BME280;4958;48.150;11.506;2023-04-28T18:11:38;95293.28;;;14.69;100.00
9839;BME280;4958;48.150;11.506;2023-04-28T18:14:18;95304.25;;;14.71;100.00
9839;BME280;4958;48.150;11.506;2023-04-28T18:17:30;95303.44;;;14.71;100.00
9839;BME280;4958;48.150;11.506;2023-04-28T18:20:20;95315.63;;;14.70;100.00
9839;BME280;4958;48.150;11.506;2023-04-28T18:23:19;95323.38;;;14.70;100.00
9839;BME280;4958;48.150;11.506;2023-04-28T18:42:26;95366.53;;;14.58;100.00
9839;BME280;4958;48.150;11.506;2023-04-28T18:45:46;95407.19;;;14.58;100.00
9839;BME280;4958;48.150;11.506;2023-04-28T18:48:48;95384.88;;;14.43;100.00
9839;BME280;4958;48.150;11.506;2023-04-28T18:51:32;95419.38;;;14.31;100.00
9839;BME280;4958;48.150;11.506;2023-04-28T18:54:47;95406.88;;;14.14;100.00
9839;BME280;4958;48.150;11.506;2023-04-28T18:57:38;95374.88;;;13.82;100.00
9839;BME280;4958;48.150;11.506;2023-04-28T19:00:14;95376.88;;;13.74;100.00
9839;BME280;4958;48.150;11.506;2023-04-28T19:02:43;95408.91;;;13.79;100.00
9839;BME280;4958;48.150;11.506;2023-04-28T19:05:23;95439.34;;;13.91;100.00
9839;BME280;4958;48.150;11.506;2023-04-28T19:08:22;95444.94;;;13.94;100.00
9839;BME280;4958;48.150;11.506;2023-04-28T19:10:53;95436.16;;;13.95;100.00
9839;BME280;4958;48.150;11.506;2023-04-28T19:13:32;95440.75;;;13.93;100.00
9839;BME280;4958;48.150;11.506;2023-04-28T19:19:15;95438.78;;;13.82;100.00
9839;BME280;4958;48.150;11.506;2023-04-28T19:25:10;95429.41;;;13.94;100.00
9839;BME280;4958;48.150;11.506;2023-04-28T19:28:08;95431.41;;;13.92;100.00
9839;BME280;4958;48.150;11.506;2023-04-28T19:31:05;95441.56;;;14.00;100.00
9839;BME280;4958;48.150;11.506;2023-04-28T19:33:52;95443.94;;;13.95;100.00
9839;BME280;4958;48.150;11.506;2023-04-28T19:36:34;95463.44;;;13.98;100.00
9839;BME280;4958;48.150;11.506;2023-04-28T19:39:17;95475.59;;;14.04;100.00
9839;BME280;4958;48.150;11.506;2023-04-28T19:42:12;95484.34;;;14.09;100.00
9839;BME280;4958;48.150;11.506;2023-04-28T19:45:15;95478.97;;;14.11;100.00
9839;BME280;4958;48.150;11.506;2023-04-28T19:54:39;95449.13;;;13.95;100.00
9839;BME280;4958;48.150;11.506;2023-04-28T19:57:55;95437.16;;;13.94;100.00
9839;BME280;4958;48.150;11.506;2023-04-28T20:00:25;95446.72;;;13.94;100.00
9839;BME280;4958;48.150;11.506;2023-04-28T20:03:00;95442.16;;;13.96;100.00
9839;BME280;4958;48.150;11.506;2023-04-28T20:08:56;95427.59;;;13.88;100.00
9839;BME280;4958;48.150;11.506;2023-04-28T20:11:41;95426.22;;;13.86;100.00
9839;BME280;4958;48.150;11.506;2023-04-28T20:17:10;95418.69;;;13.84;100.00
9839;BME280;4958;48.150;11.506;2023-04-28T20:19:56;95416.69;;;13.79;100.00
9839;BME280;4958;48.150;11.506;2023-04-28T20:22:26;95407.91;;;13.80;100.00
9839;BME280;4958;48.150;11.506;2023-04-28T20:25:08;95410.50;;;13.80;100.00
9839;BME280;4958;48.150;11.506;2023-04-28T20:27:55;95416.69;;;13.79;100.00
9839;BME280;4958;48.150;11.506;2023-04-28T20:31:06;95408.13;;;13.79;100.00
9839;BME280;4958;48.150;11.506;2023-04-28T20:34:02;95412.69;;;13.77;100.00
9839;BME280;4958;48.150;11.506;2023-04-28T20:36:48;95404.34;;;13.75;100.00
9839;BME280;4958;48.150;11.506;2023-04-28T20:39:36;95392.00;;;13.70;100.00
9839;BME280;4958;48.150;11.506;2023-04-28T20:42:19;95401.94;;;13.67;100.00
9839;BME280;4958;48.150;11.506;2023-04-28T20:45:41;95398.38;;;13.61;100.00
9839;BME280;4958;48.150;11.506;2023-04-28T20:48:12;95395.00;;;13.54;100.00
9839;BME280;4958;48.150;11.506;2023-04-28T20:54:17;95381.06;;;13.42;100.00
9839;BME280;4958;48.150;11.506;2023-04-28T20:57:36;95395.78;;;13.48;100.00
9839;BME280;4958;48.150;11.506;2023-04-28T21:00:13;95406.34;;;13.46;100.00
9839;BME280;4958;48.150;11.506;2023-04-28T21:06:58;95410.69;;;13.33;100.00
9839;BME280;4958;48.150;11.506;2023-04-28T21:09:57;95413.88;;;13.35;100.00
9839;BME280;4958;48.150;11.506;2023-04-28T21:13:17;95406.31;;;13.33;100.00
9839;BME280;4958;48.150;11.506;2023-04-28T21:16:25;95407.53;;;13.44;100.00
9839;BME280;4958;48.150;11.506;2023-04-28T21:22:17;95416.44;;;13.28;100.00
9839;BME280;4958;48.150;11.506;2023-04-28T21:25:03;95414.88;;;13.27;100.00
9839;BME280;4958;48.150;11.506;2023-04-28T21:28:14;95410.88;;;13.31;100.00
9839;BME280;4958;48.150;11.506;2023-04-28T21:30:53;95405.13;;;13.36;100.00
9839;BME280;4958;48.150;11.506;2023-04-28T21:33:49;95396.16;;;13.32;100.00
9839;BME280;4958;48.150;11.506;2023-04-28T21:36:29;95398.34;;;13.28;100.00
9839;BME280;4958;48.150;11.506;2023-04-28T21:38:59;95398.34;;;13.28;100.00
9839;BME280;4958;48.150;11.506;2023-04-28T21:41:42;95393.59;;;13.25;100.00
9839;BME280;4958;48.150;11.506;2023-04-28T21:44:25;95394.56;;;13.18;100.00
9839;BME280;4958;48.150;11.506;2023-04-28T21:47:04;95401.09;;;13.07;100.00
9839;BME280;4958;48.150;11.506;2023-04-28T21:49:46;95391.72;;;12.99;100.00
9839;BME280;4958;48.150;11.506;2023-04-28T21:52:14;95405.63;;;12.98;100.00
9839;BME280;4958;48.150;11.506;2023-04-28T21:54:48;95406.47;;;13.05;100.00
9839;BME280;4958;48.150;11.506;2023-04-28T21:57:15;95409.22;;;13.10;100.00
9839;BME280;4958;48.150;11.506;2023-04-28T21:59:44;95409.41;;;13.09;100.00
9839;BME280;4958;48.150;11.506;2023-04-28T22:02:12;95410.88;;;13.18;100.00
9839;BME280;4958;48.150;11.506;2023-04-28T22:04:53;95411.03;;;13.10;100.00
9839;BME280;4958;48.150;11.506;2023-04-28T22:07:19;95416.59;;;13.13;100.00
9839;BME280;4958;48.150;11.506;2023-04-28T22:10:08;95420.03;;;13.21;100.00
9839;BME280;4958;48.150;11.506;2023-04-28T22:12:37;95420.84;;;13.21;100.00
9839;BME280;4958;48.150;11.506;2023-04-28T22:15:08;95416.03;;;13.18;100.00
9839;BME280;4958;48.150;11.506;2023-04-28T22:17:41;95403.13;;;13.25;100.00
9839;BME280;4958;48.150;11.506;2023-04-28T22:20:14;95408.50;;;13.23;100.00
9839;BME280;4958;48.150;11.506;2023-04-28T22:22:47;95402.69;;;13.14;100.00
9839;BME280;4958;48.150;11.506;2023-04-28T22:25:15;95396.34;;;13.17;100.00
9839;BME280;4958;48.150;11.506;2023-04-28T22:27:49;95400.09;;;13.14;100.00
9839;BME280;4958;48.150;11.506;2023-04-28T22:30:20;95390.75;;;13.13;100.00
9839;BME280;4958;48.150;11.506;2023-04-28T22:32:49;95391.94;;;13.04;100.00
9839;BME280;4958;48.150;11.506;2023-04-28T22:35:48;95380.63;;;13.05;100.00
9839;BME280;4958;48.150;11.506;2023-04-28T22:38:19;95383.56;;;13.09;100.00
9839;BME280;4958;48.150;11.506;2023-04-28T22:40:50;95376.03;;;13.14;100.00
9839;BME280;4958;48.150;11.506;2023-04-28T22:43:22;95380.59;;;13.12;100.00
9839;BME280;4958;48.150;11.506;2023-04-28T22:46:11;95375.25;;;13.07;100.00
9839;BME280;4958;48.150;11.506;2023-04-28T22:48:45;95366.09;;;13.11;100.00
9839;BME280;4958;48.150;11.506;2023-04-28T22:51:22;95378.22;;;13.04;100.00
9839;BME280;4958;48.150;11.506;2023-04-28T22:53:52;95368.25;;;12.94;100.00
9839;BME280;4958;48.150;11.506;2023-04-28T22:56:31;95361.28;;;12.95;100.00
9839;BME280;4958;48.150;11.506;2023-04-28T22:59:21;95357.94;;;13.01;100.00
9839;BME280;4958;48.150;11.506;2023-04-28T23:01:47;95346.81;;;13.00;100.00
9839;BME280;4958;48.150;11.506;2023-04-28T23:04:27;95352.75;;;12.94;100.00
9839;BME280;4958;48.150;11.506;2023-04-28T23:07:03;95354.13;;;12.90;100.00
9839;BME280;4958;48.150;11.506;2023-04-28T23:10:05;95342.78;;;12.91;100.00
9839;BME280;4958;48.150;11.506;2023-04-28T23:12:48;95340.22;;;12.98;100.00
9839;BME280;4958;48.150;11.506;2023-04-28T23:15:40;95350.19;;;13.01;100.00
9839;BME280;4958;48.150;11.506;2023-04-28T23:18:18;95341.25;;;13.03;100.00
9839;BME280;4958;48.150;11.506;2023-04-28T23:20:46;95339.81;;;12.94;100.00
9839;BME280;4958;48.150;11.506;2023-04-28T23:23:14;95342.41;;;12.94;100.00
9839;BME280;4958;48.150;11.506;2023-04-28T23:25:40;95343.03;;;13.03;100.00
9839;BME280;4958;48.150;11.506;2023-04-28T23:28:09;95343.81;;;13.03;100.00
9839;BME280;4958;48.150;11.506;2023-04-28T23:30:35;95353.75;;;13.00;100.00
9839;BME280;4958;48.150;11.506;2023-04-28T23:33:02;95353.53;;;12.95;100.00
9839;BME280;4958;48.150;11.506;2023-04-28T23:35:28;95343.00;;;12.96;100.00
9839;BME280;4958;48.150;11.506;2023-04-28T23:37:57;95344.19;;;12.94;100.00
9839;BME280;4958;48.150;11.506;2023-04-28T23:40:23;95340.03;;;12.86;100.00
9839;BME280;4958;48.150;11.506;2023-04-28T23:42:53;95333.88;;;12.87;100.00
9839;BME280;4958;48.150;11.506;2023-04-28T23:45:23;95334.88;;;12.86;100.00
9839;BME280;4958;48.150;11.506;2023-04-28T23:47:50;95326.31;;;12.86;100.00
9839;BME280;4958;48.150;11.506;2023-04-28T23:50:26;95317.75;;;12.85;100.00
9839;BME280;4958;48.150;11.506;2023-04-28T23:52:55;95317.34;;;12.75;100.00
9839;BME280;4958;48.150;11.506;2023-04-28T23:55:22;95315.13;;;12.72;100.00
9839;BME280;4958;48.150;11.506;2023-04-28T23:57:52;95313.94;;;12.74;100.00
